sensor_id;sensor_type;location;lat;lon;timestamp;P1;durP1;ratioP1;P2;durP2;ratioP2
17345;SDS011;8790;53.590;10.002;2023-02-01T00:00:52;17.07;;;3.23;;
17345;SDS011;8790;53.590;10.002;2023-02-01T00:03:24;15.97;;;3.20;;
17345;SDS011;8790;53.590;10.002;2023-02-01T00:05:56;11.63;;;2.87;;
17345;SDS011;8790;53.590;10.002;2023-02-01T00:08:29;16.20;;;3.30;;
17345;SDS011;8790;53.590;10.002;2023-02-01T00:11:02;16.07;;;3.43;;
17345;SDS011;8790;53.590;10.002;2023-02-01T00:13:36;13.83;;;3.70;;
17345;SDS011;8790;53.590;10.002;2023-02-01T00:16:12;15.30;;;3.20;;
17345;SDS011;8790;53.590;10.002;2023-02-01T00:18:47;14.40;;;3.20;;
17345;SDS011;8790;53.590;10.002;2023-02-01T00:21:20;17.27;;;3.33;;
17345;SDS011;8790;53.590;10.002;2023-02-01T00:23:53;21.13;;;4.00;;
17345;SDS011;8790;53.590;10.002;2023-02-01T00:26:26;17.50;;;3.93;;
17345;SDS011;8790;53.590;10.002;2023-02-01T00:29:02;21.90;;;3.77;;
17345;SDS011;8790;53.590;10.002;2023-02-01T00:31:36;19.17;;;3.67;;
17345;SDS011;8790;53.590;10.002;2023-02-01T00:34:08;17.73;;;4.10;;
17345;SDS011;8790;53.590;10.002;2023-02-01T00:36:42;18.27;;;3.67;;
17345;SDS011;8790;53.590;10.002;2023-02-01T00:39:16;15.90;;;3.70;;
17345;SDS011;8790;53.590;10.002;2023-02-01T00:41:49;12.73;;;3.20;;
17345;SDS011;8790;53.590;10.002;2023-02-01T00:44:20;20.57;;;3.90;;
17345;SDS011;8790;53.590;10.002;2023-02-01T00:46:52;16.50;;;3.17;;
17345;SDS011;8790;53.590;10.002;2023-02-01T00:49:24;20.90;;;3.57;;
17345;SDS011;8790;53.590;10.002;2023-02-01T00:51:57;17.30;;;3.43;;
17345;SDS011;8790;53.590;10.002;2023-02-01T00:54:30;17.80;;;3.50;;
17345;SDS011;8790;53.590;10.002;2023-02-01T00:57:02;22.43;;;4.53;;
17345;SDS011;8790;53.590;10.002;2023-02-01T00:59:34;17.40;;;3.70;;
17345;SDS011;8790;53.590;10.002;2023-02-01T01:02:06;22.30;;;4.03;;
17345;SDS011;8790;53.590;10.002;2023-02-01T01:04:37;20.77;;;4.70;;
17345;SDS011;8790;53.590;10.002;2023-02-01T01:07:09;18.03;;;4.10;;
17345;SDS011;8790;53.590;10.002;2023-02-01T01:09:42;19.07;;;4.27;;
17345;SDS011;8790;53.590;10.002;2023-02-01T01:12:14;20.23;;;4.13;;
17345;SDS011;8790;53.590;10.002;2023-02-01T01:14:46;19.77;;;3.93;;
17345;SDS011;8790;53.590;10.002;2023-02-01T01:17:20;22.83;;;4.70;;
17345;SDS011;8790;53.590;10.002;2023-02-01T01:19:52;20.53;;;4.10;;
17345;SDS011;8790;53.590;10.002;2023-02-01T01:22:23;20.33;;;4.23;;
17345;SDS011;8790;53.590;10.002;2023-02-01T01:24:56;18.93;;;4.13;;
17345;SDS011;8790;53.590;10.002;2023-02-01T01:27:28;21.23;;;4.60;;
17345;SDS011;8790;53.590;10.002;2023-02-01T01:30:00;21.47;;;4.40;;
17345;SDS011;8790;53.590;10.002;2023-02-01T01:32:32;21.93;;;4.17;;
17345;SDS011;8790;53.590;10.002;2023-02-01T01:35:04;20.30;;;4.27;;
17345;SDS011;8790;53.590;10.002;2023-02-01T01:37:36;22.23;;;4.50;;
17345;SDS011;8790;53.590;10.002;2023-02-01T01:40:10;20.37;;;4.27;;
17345;SDS011;8790;53.590;10.002;2023-02-01T01:42:43;20.50;;;3.93;;
17345;SDS011;8790;53.590;10.002;2023-02-01T01:45:19;19.43;;;4.70;;
17345;SDS011;8790;53.590;10.002;2023-02-01T01:47:55;19.33;;;4.20;;
17345;SDS011;8790;53.590;10.002;2023-02-01T01:50:31;20.13;;;4.13;;
17345;SDS011;8790;53.590;10.002;2023-02-01T01:53:07;22.67;;;4.60;;
17345;SDS011;8790;53.590;10.002;2023-02-01T01:55:42;23.90;;;4.50;;
17345;SDS011;8790;53.590;10.002;2023-02-01T01:58:16;21.20;;;4.47;;
17345;SDS011;8790;53.590;10.002;2023-02-01T02:00:50;22.20;;;4.47;;
17345;SDS011;8790;53.590;10.002;2023-02-01T02:03:22;23.70;;;5.10;;
17345;SDS011;8790;53.590;10.002;2023-02-01T02:05:58;26.23;;;4.60;;
17345;SDS011;8790;53.590;10.002;2023-02-01T02:08:31;26.63;;;4.60;;
17345;SDS011;8790;53.590;10.002;2023-02-01T02:11:05;20.50;;;4.33;;
17345;SDS011;8790;53.590;10.002;2023-02-01T02:13:37;18.37;;;4.17;;
17345;SDS011;8790;53.590;10.002;2023-02-01T02:16:24;20.10;;;4.80;;
17345;SDS011;8790;53.590;10.002;2023-02-01T02:22:22;19.00;;;4.53;;
17345;SDS011;8790;53.590;10.002;2023-02-01T02:25:34;20.30;;;4.70;;
17345;SDS011;8790;53.590;10.002;2023-02-01T02:28:23;23.13;;;4.47;;
17345;SDS011;8790;53.590;10.002;2023-02-01T02:31:22;20.90;;;4.70;;
17345;SDS011;8790;53.590;10.002;2023-02-01T02:34:13;22.13;;;4.27;;
17345;SDS011;8790;53.590;10.002;2023-02-01T02:36:51;21.80;;;4.30;;
17345;SDS011;8790;53.590;10.002;2023-02-01T02:39:33;25.90;;;4.40;;
17345;SDS011;8790;53.590;10.002;2023-02-01T02:42:13;24.80;;;5.43;;
17345;SDS011;8790;53.590;10.002;2023-02-01T02:45:10;21.03;;;4.23;;
17345;SDS011;8790;53.590;10.002;2023-02-01T02:48:08;17.93;;;4.00;;
17345;SDS011;8790;53.590;10.002;2023-02-01T02:50:46;27.63;;;4.93;;
17345;SDS011;8790;53.590;10.002;2023-02-01T02:53:42;18.20;;;4.50;;
17345;SDS011;8790;53.590;10.002;2023-02-01T02:56:37;32.03;;;4.70;;
17345;SDS011;8790;53.590;10.002;2023-02-01T02:59:28;17.30;;;4.30;;
17345;SDS011;8790;53.590;10.002;2023-02-01T03:02:19;30.03;;;4.57;;
17345;SDS011;8790;53.590;10.002;2023-02-01T03:05:10;22.03;;;5.03;;
17345;SDS011;8790;53.590;10.002;2023-02-01T03:10:35;22.93;;;4.30;;
17345;SDS011;8790;53.590;10.002;2023-02-01T03:13:15;23.17;;;4.30;;
17345;SDS011;8790;53.590;10.002;2023-02-01T03:15:53;20.87;;;4.57;;
17345;SDS011;8790;53.590;10.002;2023-02-01T03:18:32;22.63;;;4.43;;
17345;SDS011;8790;53.590;10.002;2023-02-01T03:21:10;25.87;;;4.57;;
17345;SDS011;8790;53.590;10.002;2023-02-01T03:23:47;19.93;;;3.90;;
17345;SDS011;8790;53.590;10.002;2023-02-01T03:26:22;17.37;;;3.87;;
17345;SDS011;8790;53.590;10.002;2023-02-01T03:29:00;21.27;;;4.27;;
17345;SDS011;8790;53.590;10.002;2023-02-01T03:31:38;18.57;;;4.10;;
17345;SDS011;8790;53.590;10.002;2023-02-01T03:34:10;18.57;;;3.50;;
17345;SDS011;8790;53.590;10.002;2023-02-01T03:36:46;13.43;;;2.77;;
17345;SDS011;8790;53.590;10.002;2023-02-01T03:39:24;11.57;;;2.50;;
17345;SDS011;8790;53.590;10.002;2023-02-01T03:42:02;11.27;;;2.37;;
17345;SDS011;8790;53.590;10.002;2023-02-01T03:44:38;12.50;;;2.63;;
17345;SDS011;8790;53.590;10.002;2023-02-01T03:47:12;12.93;;;3.03;;
17345;SDS011;8790;53.590;10.002;2023-02-01T03:49:47;10.90;;;2.87;;
17345;SDS011;8790;53.590;10.002;2023-02-01T03:52:24;10.70;;;2.40;;
17345;SDS011;8790;53.590;10.002;2023-02-01T03:55:01;15.70;;;2.90;;
17345;SDS011;8790;53.590;10.002;2023-02-01T03:57:35;10.07;;;2.90;;
17345;SDS011;8790;53.590;10.002;2023-02-01T04:00:15;13.63;;;3.07;;
17345;SDS011;8790;53.590;10.002;2023-02-01T04:02:49;18.87;;;3.37;;
17345;SDS011;8790;53.590;10.002;2023-02-01T04:05:21;15.00;;;2.87;;
17345;SDS011;8790;53.590;10.002;2023-02-01T04:07:59;13.57;;;2.77;;
17345;SDS011;8790;53.590;10.002;2023-02-01T04:10:32;12.83;;;2.53;;
17345;SDS011;8790;53.590;10.002;2023-02-01T04:13:04;14.53;;;3.17;;
17345;SDS011;8790;53.590;10.002;2023-02-01T04:15:36;14.43;;;2.80;;
17345;SDS011;8790;53.590;10.002;2023-02-01T04:18:08;13.67;;;2.77;;
17345;SDS011;8790;53.590;10.002;2023-02-01T04:20:40;14.13;;;2.90;;
17345;SDS011;8790;53.590;10.002;2023-02-01T04:23:13;11.30;;;2.30;;
17345;SDS011;8790;53.590;10.002;2023-02-01T04:25:47;14.33;;;3.30;;
17345;SDS011;8790;53.590;10.002;2023-02-01T04:28:19;12.67;;;3.07;;
17345;SDS011;8790;53.590;10.002;2023-02-01T04:30:51;8.63;;;2.53;;
17345;SDS011;8790;53.590;10.002;2023-02-01T04:33:22;17.07;;;3.07;;
17345;SDS011;8790;53.590;10.002;2023-02-01T04:35:54;17.47;;;3.03;;
17345;SDS011;8790;53.590;10.002;2023-02-01T04:38:26;17.27;;;2.57;;
17345;SDS011;8790;53.590;10.002;2023-02-01T04:41:00;12.37;;;2.43;;
17345;SDS011;8790;53.590;10.002;2023-02-01T04:43:32;12.23;;;2.70;;
17345;SDS011;8790;53.590;10.002;2023-02-01T04:46:04;9.60;;;2.60;;
17345;SDS011;8790;53.590;10.002;2023-02-01T04:48:35;7.27;;;2.20;;
17345;SDS011;8790;53.590;10.002;2023-02-01T04:51:07;9.33;;;1.87;;
17345;SDS011;8790;53.590;10.002;2023-02-01T04:53:40;11.97;;;2.47;;
17345;SDS011;8790;53.590;10.002;2023-02-01T04:56:13;10.93;;;2.30;;
17345;SDS011;8790;53.590;10.002;2023-02-01T04:58:45;10.83;;;2.43;;
17345;SDS011;8790;53.590;10.002;2023-02-01T05:01:16;9.20;;;2.23;;
17345;SDS011;8790;53.590;10.002;2023-02-01T05:03:48;7.00;;;1.80;;
17345;SDS011;8790;53.590;10.002;2023-02-01T05:06:20;7.97;;;2.10;;
17345;SDS011;8790;53.590;10.002;2023-02-01T05:08:52;7.03;;;1.67;;
17345;SDS011;8790;53.590;10.002;2023-02-01T05:11:25;8.47;;;1.50;;
17345;SDS011;8790;53.590;10.002;2023-02-01T05:14:14;5.33;;;1.30;;
17345;SDS011;8790;53.590;10.002;2023-02-01T05:16:46;4.57;;;0.83;;
17345;SDS011;8790;53.590;10.002;2023-02-01T05:19:18;1.80;;;0.67;;
17345;SDS011;8790;53.590;10.002;2023-02-01T05:21:50;3.13;;;0.60;;
17345;SDS011;8790;53.590;10.002;2023-02-01T05:24:21;1.33;;;0.60;;
17345;SDS011;8790;53.590;10.002;2023-02-01T05:26:55;0.87;;;0.50;;
17345;SDS011;8790;53.590;10.002;2023-02-01T05:29:26;1.73;;;0.70;;
17345;SDS011;8790;53.590;10.002;2023-02-01T05:31:58;4.90;;;0.93;;
17345;SDS011;8790;53.590;10.002;2023-02-01T05:34:30;2.40;;;0.80;;
17345;SDS011;8790;53.590;10.002;2023-02-01T05:37:02;1.93;;;0.70;;
17345;SDS011;8790;53.590;10.002;2023-02-01T05:39:33;3.37;;;0.87;;
17345;SDS011;8790;53.590;10.002;2023-02-01T05:42:06;2.43;;;0.83;;
17345;SDS011;8790;53.590;10.002;2023-02-01T05:44:38;1.37;;;0.57;;
17345;SDS011;8790;53.590;10.002;2023-02-01T05:47:10;1.30;;;0.70;;
17345;SDS011;8790;53.590;10.002;2023-02-01T05:49:42;4.43;;;0.90;;
17345;SDS011;8790;53.590;10.002;2023-02-01T05:52:14;4.50;;;0.80;;
17345;SDS011;8790;53.590;10.002;2023-02-01T05:54:49;3.67;;;0.80;;
17345;SDS011;8790;53.590;10.002;2023-02-01T05:57:22;2.93;;;0.67;;
17345;SDS011;8790;53.590;10.002;2023-02-01T05:59:54;2.10;;;0.50;;
17345;SDS011;8790;53.590;10.002;2023-02-01T06:02:25;2.33;;;0.57;;
17345;SDS011;8790;53.590;10.002;2023-02-01T06:04:57;1.87;;;0.70;;
17345;SDS011;8790;53.590;10.002;2023-02-01T06:07:29;1.43;;;0.57;;
17345;SDS011;8790;53.590;10.002;2023-02-01T06:10:02;3.17;;;0.60;;
17345;SDS011;8790;53.590;10.002;2023-02-01T06:12:36;2.10;;;0.70;;
17345;SDS011;8790;53.590;10.002;2023-02-01T06:15:08;2.83;;;0.60;;
17345;SDS011;8790;53.590;10.002;2023-02-01T06:17:40;1.17;;;0.70;;
17345;SDS011;8790;53.590;10.002;2023-02-01T06:20:14;1.23;;;0.70;;
17345;SDS011;8790;53.590;10.002;2023-02-01T06:22:46;3.13;;;0.73;;
17345;SDS011;8790;53.590;10.002;2023-02-01T06:25:18;3.67;;;0.90;;
17345;SDS011;8790;53.590;10.002;2023-02-01T06:27:52;2.83;;;1.03;;
17345;SDS011;8790;53.590;10.002;2023-02-01T06:30:23;4.27;;;1.10;;
17345;SDS011;8790;53.590;10.002;2023-02-01T06:32:55;4.57;;;1.43;;
17345;SDS011;8790;53.590;10.002;2023-02-01T06:35:27;6.77;;;1.43;;
17345;SDS011;8790;53.590;10.002;2023-02-01T06:37:59;4.10;;;1.30;;
17345;SDS011;8790;53.590;10.002;2023-02-01T06:40:31;8.53;;;1.90;;
17345;SDS011;8790;53.590;10.002;2023-02-01T06:43:04;7.33;;;1.77;;
17345;SDS011;8790;53.590;10.002;2023-02-01T06:45:35;7.57;;;1.87;;
17345;SDS011;8790;53.590;10.002;2023-02-01T06:48:07;6.27;;;1.60;;
17345;SDS011;8790;53.590;10.002;2023-02-01T06:50:39;12.43;;;2.07;;
17345;SDS011;8790;53.590;10.002;2023-02-01T06:53:10;5.47;;;1.90;;
17345;SDS011;8790;53.590;10.002;2023-02-01T06:55:50;9.90;;;2.03;;
17345;SDS011;8790;53.590;10.002;2023-02-01T06:58:27;7.57;;;1.93;;
17345;SDS011;8790;53.590;10.002;2023-02-01T07:01:04;8.63;;;2.47;;
17345;SDS011;8790;53.590;10.002;2023-02-01T07:03:37;9.77;;;2.30;;
17345;SDS011;8790;53.590;10.002;2023-02-01T07:06:09;11.33;;;2.00;;
17345;SDS011;8790;53.590;10.002;2023-02-01T07:08:41;10.37;;;2.17;;
17345;SDS011;8790;53.590;10.002;2023-02-01T07:11:13;9.60;;;2.50;;
17345;SDS011;8790;53.590;10.002;2023-02-01T07:13:47;10.13;;;2.30;;
17345;SDS011;8790;53.590;10.002;2023-02-01T07:16:20;12.27;;;2.57;;
17345;SDS011;8790;53.590;10.002;2023-02-01T07:18:52;13.53;;;2.70;;
17345;SDS011;8790;53.590;10.002;2023-02-01T07:21:23;12.03;;;2.80;;
17345;SDS011;8790;53.590;10.002;2023-02-01T07:23:58;12.03;;;2.50;;
17345;SDS011;8790;53.590;10.002;2023-02-01T07:26:30;11.90;;;2.60;;
17345;SDS011;8790;53.590;10.002;2023-02-01T07:29:03;18.50;;;3.10;;
17345;SDS011;8790;53.590;10.002;2023-02-01T07:31:35;18.07;;;3.43;;
17345;SDS011;8790;53.590;10.002;2023-02-01T07:34:07;14.73;;;3.07;;
17345;SDS011;8790;53.590;10.002;2023-02-01T07:36:38;13.23;;;3.03;;
17345;SDS011;8790;53.590;10.002;2023-02-01T07:39:10;14.17;;;2.70;;
17345;SDS011;8790;53.590;10.002;2023-02-01T07:41:42;13.13;;;2.37;;
17345;SDS011;8790;53.590;10.002;2023-02-01T07:44:18;12.17;;;2.80;;
17345;SDS011;8790;53.590;10.002;2023-02-01T07:46:52;12.17;;;2.37;;
17345;SDS011;8790;53.590;10.002;2023-02-01T07:49:24;17.57;;;3.07;;
17345;SDS011;8790;53.590;10.002;2023-02-01T07:51:56;14.73;;;3.37;;
17345;SDS011;8790;53.590;10.002;2023-02-01T07:54:27;15.57;;;2.90;;
17345;SDS011;8790;53.590;10.002;2023-02-01T07:56:59;15.90;;;3.67;;
17345;SDS011;8790;53.590;10.002;2023-02-01T07:59:32;15.50;;;4.10;;
17345;SDS011;8790;53.590;10.002;2023-02-01T08:02:04;20.73;;;4.87;;
17345;SDS011;8790;53.590;10.002;2023-02-01T08:04:34;20.20;;;3.93;;
17345;SDS011;8790;53.590;10.002;2023-02-01T08:07:06;22.90;;;4.17;;
17345;SDS011;8790;53.590;10.002;2023-02-01T08:09:38;20.37;;;4.10;;
17345;SDS011;8790;53.590;10.002;2023-02-01T08:12:09;20.07;;;4.63;;
17345;SDS011;8790;53.590;10.002;2023-02-01T08:14:43;18.63;;;3.77;;
17345;SDS011;8790;53.590;10.002;2023-02-01T08:17:14;22.13;;;4.23;;
17345;SDS011;8790;53.590;10.002;2023-02-01T08:19:46;18.93;;;3.50;;
17345;SDS011;8790;53.590;10.002;2023-02-01T08:22:18;24.43;;;4.00;;
17345;SDS011;8790;53.590;10.002;2023-02-01T08:24:49;18.67;;;3.93;;
17345;SDS011;8790;53.590;10.002;2023-02-01T08:27:21;17.93;;;3.53;;
17345;SDS011;8790;53.590;10.002;2023-02-01T08:29:54;20.50;;;3.87;;
17345;SDS011;8790;53.590;10.002;2023-02-01T08:32:26;17.87;;;4.07;;
17345;SDS011;8790;53.590;10.002;2023-02-01T08:34:58;13.67;;;3.70;;
17345;SDS011;8790;53.590;10.002;2023-02-01T08:37:30;19.00;;;4.17;;
17345;SDS011;8790;53.590;10.002;2023-02-01T08:40:02;18.07;;;3.17;;
17345;SDS011;8790;53.590;10.002;2023-02-01T08:42:34;12.03;;;2.67;;
17345;SDS011;8790;53.590;10.002;2023-02-01T08:45:26;11.90;;;2.47;;
17345;SDS011;8790;53.590;10.002;2023-02-01T08:47:59;11.10;;;2.47;;
17345;SDS011;8790;53.590;10.002;2023-02-01T08:50:31;13.73;;;2.43;;
17345;SDS011;8790;53.590;10.002;2023-02-01T08:53:02;14.07;;;2.93;;
17345;SDS011;8790;53.590;10.002;2023-02-01T08:55:34;12.80;;;2.90;;
17345;SDS011;8790;53.590;10.002;2023-02-01T08:58:06;17.20;;;3.00;;
17345;SDS011;8790;53.590;10.002;2023-02-01T09:00:39;14.80;;;2.53;;
17345;SDS011;8790;53.590;10.002;2023-02-01T09:03:11;18.43;;;3.57;;
17345;SDS011;8790;53.590;10.002;2023-02-01T09:05:43;17.67;;;3.70;;
17345;SDS011;8790;53.590;10.002;2023-02-01T09:08:16;14.63;;;3.23;;
17345;SDS011;8790;53.590;10.002;2023-02-01T09:10:50;17.10;;;3.50;;
17345;SDS011;8790;53.590;10.002;2023-02-01T09:13:21;20.47;;;3.77;;
17345;SDS011;8790;53.590;10.002;2023-02-01T09:15:54;19.73;;;3.47;;
17345;SDS011;8790;53.590;10.002;2023-02-01T09:18:26;19.93;;;3.43;;
17345;SDS011;8790;53.590;10.002;2023-02-01T09:20:58;18.20;;;4.00;;
17345;SDS011;8790;53.590;10.002;2023-02-01T09:23:31;18.33;;;3.93;;
17345;SDS011;8790;53.590;10.002;2023-02-01T09:26:03;18.13;;;3.47;;
17345;SDS011;8790;53.590;10.002;2023-02-01T09:28:36;18.27;;;3.47;;
17345;SDS011;8790;53.590;10.002;2023-02-01T09:31:09;20.77;;;3.60;;
17345;SDS011;8790;53.590;10.002;2023-02-01T09:33:41;16.50;;;3.47;;
17345;SDS011;8790;53.590;10.002;2023-02-01T09:36:13;12.43;;;3.27;;
17345;SDS011;8790;53.590;10.002;2023-02-01T09:38:44;18.40;;;3.17;;
17345;SDS011;8790;53.590;10.002;2023-02-01T09:41:20;17.27;;;3.53;;
17345;SDS011;8790;53.590;10.002;2023-02-01T09:43:59;17.57;;;4.03;;
17345;SDS011;8790;53.590;10.002;2023-02-01T09:46:39;20.30;;;3.90;;
17345;SDS011;8790;53.590;10.002;2023-02-01T09:49:11;15.87;;;3.33;;
17345;SDS011;8790;53.590;10.002;2023-02-01T09:51:47;19.70;;;3.50;;
17345;SDS011;8790;53.590;10.002;2023-02-01T09:54:21;18.67;;;4.23;;
17345;SDS011;8790;53.590;10.002;2023-02-01T09:56:56;15.63;;;3.87;;
17345;SDS011;8790;53.590;10.002;2023-02-01T09:59:38;26.67;;;6.10;;
17345;SDS011;8790;53.590;10.002;2023-02-01T10:02:14;20.60;;;3.60;;
17345;SDS011;8790;53.590;10.002;2023-02-01T10:04:48;19.40;;;3.87;;
17345;SDS011;8790;53.590;10.002;2023-02-01T10:07:23;15.50;;;3.20;;
17345;SDS011;8790;53.590;10.002;2023-02-01T10:10:04;21.50;;;4.53;;
17345;SDS011;8790;53.590;10.002;2023-02-01T10:13:02;16.53;;;3.33;;
17345;SDS011;8790;53.590;10.002;2023-02-01T10:16:04;17.93;;;3.50;;
17345;SDS011;8790;53.590;10.002;2023-02-01T10:21:50;18.47;;;3.50;;
17345;SDS011;8790;53.590;10.002;2023-02-01T10:24:28;13.60;;;2.73;;
17345;SDS011;8790;53.590;10.002;2023-02-01T10:27:14;11.07;;;2.70;;
17345;SDS011;8790;53.590;10.002;2023-02-01T10:29:50;19.93;;;4.07;;
17345;SDS011;8790;53.590;10.002;2023-02-01T10:32:28;15.23;;;3.17;;
17345;SDS011;8790;53.590;10.002;2023-02-01T10:35:08;11.50;;;2.97;;
17345;SDS011;8790;53.590;10.002;2023-02-01T10:37:46;13.83;;;3.07;;
17345;SDS011;8790;53.590;10.002;2023-02-01T10:40:19;13.23;;;3.07;;
17345;SDS011;8790;53.590;10.002;2023-02-01T10:42:53;14.20;;;2.97;;
17345;SDS011;8790;53.590;10.002;2023-02-01T10:45:29;16.20;;;3.10;;
17345;SDS011;8790;53.590;10.002;2023-02-01T10:48:02;18.77;;;3.57;;
17345;SDS011;8790;53.590;10.002;2023-02-01T10:50:37;14.93;;;3.27;;
17345;SDS011;8790;53.590;10.002;2023-02-01T10:53:15;14.43;;;2.77;;
17345;SDS011;8790;53.590;10.002;2023-02-01T10:55:51;17.50;;;3.20;;
17345;SDS011;8790;53.590;10.002;2023-02-01T10:58:26;13.57;;;3.47;;
17345;SDS011;8790;53.590;10.002;2023-02-01T11:00:59;16.20;;;3.57;;
17345;SDS011;8790;53.590;10.002;2023-02-01T11:03:34;17.30;;;3.60;;
17345;SDS011;8790;53.590;10.002;2023-02-01T11:06:13;20.13;;;3.47;;
17345;SDS011;8790;53.590;10.002;2023-02-01T11:08:50;11.80;;;3.27;;
17345;SDS011;8790;53.590;10.002;2023-02-01T11:11:24;16.60;;;3.33;;
17345;SDS011;8790;53.590;10.002;2023-02-01T11:13:57;17.90;;;3.97;;
17345;SDS011;8790;53.590;10.002;2023-02-01T11:16:33;20.73;;;3.50;;
17345;SDS011;8790;53.590;10.002;2023-02-01T11:19:06;16.77;;;3.57;;
17345;SDS011;8790;53.590;10.002;2023-02-01T11:21:39;14.87;;;2.77;;
17345;SDS011;8790;53.590;10.002;2023-02-01T11:24:17;16.93;;;3.43;;
17345;SDS011;8790;53.590;10.002;2023-02-01T11:26:54;16.13;;;3.70;;
17345;SDS011;8790;53.590;10.002;2023-02-01T11:29:28;17.53;;;3.30;;
17345;SDS011;8790;53.590;10.002;2023-02-01T11:32:04;17.10;;;3.07;;
17345;SDS011;8790;53.590;10.002;2023-02-01T11:34:36;13.43;;;2.87;;
17345;SDS011;8790;53.590;10.002;2023-02-01T11:37:14;16.73;;;3.50;;
17345;SDS011;8790;53.590;10.002;2023-02-01T11:39:53;16.50;;;3.17;;
17345;SDS011;8790;53.590;10.002;2023-02-01T11:42:27;17.17;;;3.20;;
17345;SDS011;8790;53.590;10.002;2023-02-01T11:45:19;16.93;;;3.27;;
17345;SDS011;8790;53.590;10.002;2023-02-01T11:47:52;14.87;;;3.20;;
17345;SDS011;8790;53.590;10.002;2023-02-01T11:50:27;12.63;;;3.37;;
17345;SDS011;8790;53.590;10.002;2023-02-01T11:53:07;15.43;;;3.40;;
17345;SDS011;8790;53.590;10.002;2023-02-01T11:55:52;16.90;;;3.20;;
17345;SDS011;8790;53.590;10.002;2023-02-01T11:58:38;13.70;;;2.90;;
17345;SDS011;8790;53.590;10.002;2023-02-01T12:01:30;14.87;;;3.60;;
17345;SDS011;8790;53.590;10.002;2023-02-01T12:04:16;12.83;;;3.10;;
17345;SDS011;8790;53.590;10.002;2023-02-01T12:07:05;6.70;;;2.00;;
17345;SDS011;8790;53.590;10.002;2023-02-01T12:09:53;7.17;;;1.80;;
17345;SDS011;8790;53.590;10.002;2023-02-01T12:12:35;11.67;;;2.40;;
17345;SDS011;8790;53.590;10.002;2023-02-01T12:15:18;9.23;;;2.20;;
17345;SDS011;8790;53.590;10.002;2023-02-01T12:18:10;8.30;;;2.23;;
17345;SDS011;8790;53.590;10.002;2023-02-01T12:21:03;10.23;;;2.47;;
17345;SDS011;8790;53.590;10.002;2023-02-01T12:23:42;5.67;;;1.90;;
17345;SDS011;8790;53.590;10.002;2023-02-01T12:26:31;12.37;;;2.00;;
17345;SDS011;8790;53.590;10.002;2023-02-01T12:32:21;7.10;;;1.80;;
17345;SDS011;8790;53.590;10.002;2023-02-01T12:37:58;4.47;;;1.40;;
17345;SDS011;8790;53.590;10.002;2023-02-01T12:40:42;6.23;;;1.30;;
17345;SDS011;8790;53.590;10.002;2023-02-01T12:43:20;5.40;;;1.23;;
17345;SDS011;8790;53.590;10.002;2023-02-01T12:45:57;3.77;;;1.00;;
17345;SDS011;8790;53.590;10.002;2023-02-01T12:48:33;4.33;;;1.00;;
17345;SDS011;8790;53.590;10.002;2023-02-01T12:51:09;2.37;;;0.90;;
17345;SDS011;8790;53.590;10.002;2023-02-01T12:53:45;4.50;;;0.80;;
17345;SDS011;8790;53.590;10.002;2023-02-01T12:56:22;2.77;;;0.90;;
17345;SDS011;8790;53.590;10.002;2023-02-01T12:58:59;3.80;;;0.80;;
17345;SDS011;8790;53.590;10.002;2023-02-01T13:01:34;1.63;;;0.80;;
17345;SDS011;8790;53.590;10.002;2023-02-01T13:04:10;1.60;;;0.70;;
17345;SDS011;8790;53.590;10.002;2023-02-01T13:06:47;2.20;;;0.60;;
17345;SDS011;8790;53.590;10.002;2023-02-01T13:09:24;1.53;;;0.60;;
17345;SDS011;8790;53.590;10.002;2023-02-01T13:11:59;2.10;;;0.77;;
17345;SDS011;8790;53.590;10.002;2023-02-01T13:14:42;1.27;;;0.70;;
17345;SDS011;8790;53.590;10.002;2023-02-01T13:17:21;1.73;;;0.40;;
17345;SDS011;8790;53.590;10.002;2023-02-01T13:19:56;2.57;;;0.70;;
17345;SDS011;8790;53.590;10.002;2023-02-01T13:22:31;1.80;;;0.77;;
17345;SDS011;8790;53.590;10.002;2023-02-01T13:25:10;2.37;;;0.80;;
17345;SDS011;8790;53.590;10.002;2023-02-01T13:27:44;1.60;;;0.70;;
17345;SDS011;8790;53.590;10.002;2023-02-01T13:30:20;1.47;;;0.80;;
17345;SDS011;8790;53.590;10.002;2023-02-01T13:33:03;1.03;;;0.60;;
17345;SDS011;8790;53.590;10.002;2023-02-01T13:35:55;1.57;;;0.53;;
17345;SDS011;8790;53.590;10.002;2023-02-01T13:38:54;2.80;;;1.00;;
17345;SDS011;8790;53.590;10.002;2023-02-01T13:41:50;1.97;;;0.80;;
17345;SDS011;8790;53.590;10.002;2023-02-01T13:44:25;4.30;;;0.60;;
17345;SDS011;8790;53.590;10.002;2023-02-01T13:47:02;1.77;;;0.70;;
17345;SDS011;8790;53.590;10.002;2023-02-01T13:49:42;2.87;;;0.70;;
17345;SDS011;8790;53.590;10.002;2023-02-01T13:52:22;2.47;;;1.00;;
17345;SDS011;8790;53.590;10.002;2023-02-01T13:55:00;1.90;;;1.00;;
17345;SDS011;8790;53.590;10.002;2023-02-01T13:57:44;3.60;;;0.90;;
17345;SDS011;8790;53.590;10.002;2023-02-01T14:00:25;6.53;;;3.63;;
17345;SDS011;8790;53.590;10.002;2023-02-01T14:03:09;11.57;;;7.03;;
17345;SDS011;8790;53.590;10.002;2023-02-01T14:11:44;3.90;;;0.80;;
17345;SDS011;8790;53.590;10.002;2023-02-01T14:14:37;3.47;;;0.70;;
17345;SDS011;8790;53.590;10.002;2023-02-01T14:23:23;4.27;;;0.80;;
17345;SDS011;8790;53.590;10.002;2023-02-01T14:26:03;2.23;;;0.80;;
17345;SDS011;8790;53.590;10.002;2023-02-01T14:28:49;3.80;;;1.07;;
17345;SDS011;8790;53.590;10.002;2023-02-01T14:34:48;6.47;;;1.30;;
17345;SDS011;8790;53.590;10.002;2023-02-01T14:37:24;4.03;;;1.07;;
17345;SDS011;8790;53.590;10.002;2023-02-01T14:40:02;5.43;;;1.40;;
17345;SDS011;8790;53.590;10.002;2023-02-01T14:42:38;6.13;;;1.23;;
17345;SDS011;8790;53.590;10.002;2023-02-01T14:48:41;8.37;;;1.93;;
17345;SDS011;8790;53.590;10.002;2023-02-01T14:51:16;8.47;;;1.60;;
17345;SDS011;8790;53.590;10.002;2023-02-01T14:53:50;5.93;;;1.20;;
17345;SDS011;8790;53.590;10.002;2023-02-01T14:56:23;4.83;;;1.30;;
17345;SDS011;8790;53.590;10.002;2023-02-01T14:59:00;5.83;;;1.30;;
17345;SDS011;8790;53.590;10.002;2023-02-01T15:01:39;6.57;;;1.40;;
17345;SDS011;8790;53.590;10.002;2023-02-01T15:04:21;6.97;;;1.63;;
17345;SDS011;8790;53.590;10.002;2023-02-01T15:06:57;6.13;;;1.57;;
17345;SDS011;8790;53.590;10.002;2023-02-01T15:09:36;12.00;;;2.30;;
17345;SDS011;8790;53.590;10.002;2023-02-01T15:12:14;8.73;;;2.27;;
17345;SDS011;8790;53.590;10.002;2023-02-01T15:15:02;9.03;;;1.83;;
17345;SDS011;8790;53.590;10.002;2023-02-01T15:17:41;7.10;;;2.03;;
17345;SDS011;8790;53.590;10.002;2023-02-01T15:20:20;12.20;;;2.10;;
17345;SDS011;8790;53.590;10.002;2023-02-01T15:22:55;8.93;;;2.13;;
17345;SDS011;8790;53.590;10.002;2023-02-01T15:25:29;10.90;;;2.17;;
17345;SDS011;8790;53.590;10.002;2023-02-01T15:28:10;10.20;;;2.37;;
17345;SDS011;8790;53.590;10.002;2023-02-01T15:30:55;10.43;;;1.67;;
17345;SDS011;8790;53.590;10.002;2023-02-01T15:33:28;7.67;;;1.70;;
17345;SDS011;8790;53.590;10.002;2023-02-01T15:36:08;9.50;;;2.37;;
17345;SDS011;8790;53.590;10.002;2023-02-01T15:38:42;11.87;;;2.00;;
17345;SDS011;8790;53.590;10.002;2023-02-01T15:41:14;11.40;;;2.33;;
17345;SDS011;8790;53.590;10.002;2023-02-01T15:44:01;9.90;;;1.87;;
17345;SDS011;8790;53.590;10.002;2023-02-01T15:46:36;9.03;;;1.70;;
17345;SDS011;8790;53.590;10.002;2023-02-01T15:49:16;9.27;;;2.20;;
17345;SDS011;8790;53.590;10.002;2023-02-01T15:51:51;10.40;;;2.07;;
17345;SDS011;8790;53.590;10.002;2023-02-01T15:54:26;13.67;;;2.67;;
17345;SDS011;8790;53.590;10.002;2023-02-01T15:57:01;11.47;;;2.10;;
17345;SDS011;8790;53.590;10.002;2023-02-01T15:59:37;10.70;;;2.17;;
17345;SDS011;8790;53.590;10.002;2023-02-01T16:02:25;16.37;;;2.70;;
17345;SDS011;8790;53.590;10.002;2023-02-01T16:04:58;11.50;;;2.30;;